createdAt,value
2018-07-06T00:00:39.782Z,99.90
2018-07-06T00:02:54.816Z,99.90
2018-07-06T00:05:10.159Z,99.90
2018-07-06T00:07:25.423Z,99.90
2018-07-06T00:09:40.751Z,99.90
2018-07-06T00:11:56.090Z,99.90
2018-07-06T00:14:11.225Z,99.90
2018-07-06T00:16:26.342Z,99.90
2018-07-06T00:20:50.576Z,99.90
2018-07-06T00:23:05.829Z,99.90
2018-07-06T00:25:22.020Z,99.90
2018-07-06T00:27:37.089Z,99.90
2018-07-06T00:29:52.708Z,99.90
2018-07-06T00:32:07.940Z,99.90
2018-07-06T00:34:23.105Z,99.90
2018-07-06T00:36:38.111Z,99.90
2018-07-06T00:38:53.233Z,99.90
2018-07-06T00:41:09.782Z,99.90
2018-07-06T00:43:25.402Z,99.90
2018-07-06T00:45:40.727Z,99.90
2018-07-06T00:47:55.837Z,99.90
2018-07-06T00:50:10.992Z,99.90
2018-07-06T00:52:26.109Z,99.90
2018-07-06T00:54:41.305Z,99.90
2018-07-06T00:56:56.383Z,99.90
2018-07-06T00:59:11.635Z,99.90
2018-07-06T01:01:27.123Z,99.90
2018-07-06T01:03:42.345Z,99.90
2018-07-06T01:05:57.318Z,99.90
2018-07-06T01:08:12.470Z,99.90
2018-07-06T01:10:27.558Z,99.90
2018-07-06T01:12:48.260Z,99.90
2018-07-06T01:15:07.843Z,99.90
2018-07-06T01:17:22.944Z,99.90
2018-07-06T01:19:38.294Z,99.90
2018-07-06T01:21:53.321Z,99.90
2018-07-06T01:24:08.576Z,99.90
2018-07-06T01:26:23.954Z,99.90
2018-07-06T01:28:42.423Z,99.90
2018-07-06T01:30:57.516Z,99.90
2018-07-06T01:33:12.707Z,99.90
2018-07-06T01:35:27.918Z,99.90
2018-07-06T01:37:43.244Z,99.90
2018-07-06T01:39:58.646Z,99.90
2018-07-06T01:42:14.018Z,99.90
2018-07-06T01:44:29.350Z,99.90
2018-07-06T01:46:44.545Z,99.90
2018-07-06T01:48:59.864Z,99.90
2018-07-06T01:51:14.880Z,99.90
2018-07-06T01:53:30.080Z,99.90
2018-07-06T01:55:45.335Z,99.90
2018-07-06T01:58:00.398Z,99.90
2018-07-06T02:00:15.666Z,99.90
2018-07-06T02:02:31.090Z,99.90
2018-07-06T02:04:46.317Z,99.90
2018-07-06T02:07:01.576Z,99.90
2018-07-06T02:09:16.711Z,99.90
2018-07-06T02:11:31.822Z,99.90
2018-07-06T02:13:46.731Z,99.90
2018-07-06T02:16:01.643Z,99.90
2018-07-06T02:18:16.764Z,99.90
2018-07-06T02:20:31.798Z,99.90
2018-07-06T02:22:46.802Z,99.90
2018-07-06T02:25:01.821Z,99.90
2018-07-06T02:27:17.048Z,99.90
2018-07-06T02:29:32.045Z,99.90
2018-07-06T02:31:47.492Z,99.90
2018-07-06T02:34:02.516Z,99.90
2018-07-06T02:36:17.544Z,99.90
2018-07-06T02:38:32.610Z,99.90
2018-07-06T02:40:47.743Z,99.90
2018-07-06T02:43:02.812Z,99.90
2018-07-06T02:45:17.952Z,99.90
2018-07-06T02:47:32.923Z,99.90
2018-07-06T02:49:47.979Z,99.90
2018-07-06T02:52:02.940Z,99.90
2018-07-06T02:54:17.948Z,99.90
2018-07-06T02:56:33.102Z,99.90
2018-07-06T02:58:48.122Z,99.90
2018-07-06T03:01:03.471Z,99.90
2018-07-06T03:03:18.626Z,99.90
2018-07-06T03:05:33.861Z,99.90
2018-07-06T03:07:49.090Z,99.90
2018-07-06T03:10:04.046Z,99.90
2018-07-06T03:12:18.907Z,99.90
2018-07-06T03:14:34.047Z,99.90
2018-07-06T03:16:49.140Z,99.90
2018-07-06T03:19:03.960Z,99.90
2018-07-06T03:21:19.066Z,99.90
2018-07-06T03:23:34.158Z,99.90
2018-07-06T03:25:49.327Z,99.90
2018-07-06T03:28:04.344Z,99.90
2018-07-06T03:30:19.536Z,99.90
2018-07-06T03:32:34.695Z,99.90
2018-07-06T03:34:49.708Z,99.90
2018-07-06T03:37:04.937Z,99.90
2018-07-06T03:39:19.844Z,99.90
2018-07-06T03:41:34.621Z,99.90
2018-07-06T03:43:49.797Z,99.90
2018-07-06T03:46:04.804Z,99.90
2018-07-06T03:48:19.669Z,99.90
2018-07-06T03:50:34.717Z,99.90
2018-07-06T03:52:49.624Z,99.90
2018-07-06T03:55:04.623Z,99.90
2018-07-06T03:57:20.697Z,99.90
2018-07-06T03:59:35.864Z,99.90
2018-07-06T04:04:22.974Z,99.90
2018-07-06T04:06:38.172Z,99.90
2018-07-06T04:08:53.142Z,99.90
2018-07-06T04:11:08.338Z,99.90
2018-07-06T04:13:23.434Z,99.90
2018-07-06T04:15:38.335Z,99.90
2018-07-06T04:17:58.621Z,99.90
2018-07-06T04:20:13.697Z,99.90
2018-07-06T04:22:28.734Z,99.90
2018-07-06T04:24:43.828Z,99.90
2018-07-06T04:27:04.456Z,99.90
2018-07-06T04:29:19.352Z,99.90
2018-07-06T04:31:34.920Z,99.90
2018-07-06T04:33:49.915Z,99.90
2018-07-06T04:36:05.007Z,99.90
2018-07-06T04:38:19.900Z,99.90
2018-07-06T04:43:03.011Z,99.90
2018-07-06T04:45:18.023Z,99.90
2018-07-06T04:47:32.888Z,99.90
2018-07-06T04:49:47.951Z,99.90
2018-07-06T04:52:02.987Z,99.90
2018-07-06T04:54:18.165Z,99.90
2018-07-06T04:56:33.488Z,99.90
2018-07-06T04:58:48.521Z,99.90
2018-07-06T05:01:03.736Z,99.90
2018-07-06T05:03:18.902Z,99.90
2018-07-06T05:05:33.998Z,99.90
2018-07-06T05:07:48.906Z,99.90
2018-07-06T05:10:03.941Z,99.90
2018-07-06T05:12:18.851Z,99.90
2018-07-06T05:14:33.941Z,99.90
2018-07-06T05:16:48.960Z,99.90
2018-07-06T05:19:03.828Z,99.90
2018-07-06T05:21:20.934Z,99.90
2018-07-06T05:23:35.960Z,99.90
2018-07-06T05:25:50.954Z,99.90
2018-07-06T05:28:05.964Z,99.90
2018-07-06T05:30:20.785Z,99.90
2018-07-06T05:32:35.966Z,99.90
2018-07-06T05:34:50.893Z,99.90
2018-07-06T05:37:09.717Z,99.90
2018-07-06T05:39:24.655Z,99.90
2018-07-06T05:41:39.595Z,99.90
2018-07-06T05:43:54.743Z,99.90
2018-07-06T05:46:09.930Z,99.90
2018-07-06T05:48:24.983Z,99.90
2018-07-06T05:53:25.713Z,99.90
2018-07-06T05:55:41.363Z,99.90
2018-07-06T05:58:03.915Z,99.90
2018-07-06T06:00:18.904Z,99.90
2018-07-06T06:02:51.913Z,99.90
2018-07-06T06:05:11.521Z,99.90
2018-07-06T06:07:23.012Z,99.90
2018-07-06T06:09:26.988Z,99.90
2018-07-06T06:11:30.778Z,99.90
2018-07-06T06:13:34.666Z,99.90
2018-07-06T06:15:39.238Z,99.90
2018-07-06T06:17:43.122Z,99.90
2018-07-06T06:19:50.468Z,99.90
2018-07-06T06:21:54.450Z,99.90
2018-07-06T06:23:58.337Z,99.90
2018-07-06T06:26:02.262Z,99.90
2018-07-06T06:28:06.085Z,99.90
2018-07-06T06:30:10.112Z,99.90
2018-07-06T06:32:14.063Z,99.90
2018-07-06T06:34:38.736Z,99.90
2018-07-06T06:36:42.772Z,99.90
2018-07-06T06:38:47.081Z,99.90
2018-07-06T06:40:51.071Z,99.90
2018-07-06T06:42:55.052Z,99.90
2018-07-06T06:45:05.954Z,99.90
2018-07-06T06:47:13.874Z,99.90
2018-07-06T06:49:17.945Z,99.90
2018-07-06T06:51:39.686Z,99.90
2018-07-06T06:53:43.758Z,99.90
2018-07-06T06:55:47.580Z,99.90
2018-07-06T06:57:51.527Z,99.90
2018-07-06T06:59:55.568Z,99.90
2018-07-06T07:01:59.530Z,99.90
2018-07-06T07:04:03.455Z,99.90
2018-07-06T07:06:07.437Z,99.90
2018-07-06T07:08:11.258Z,99.90
2018-07-06T07:10:15.258Z,99.90
2018-07-06T07:12:19.140Z,99.90
2018-07-06T07:14:23.142Z,99.90
2018-07-06T07:16:26.983Z,99.90
2018-07-06T07:18:31.024Z,99.90
2018-07-06T07:20:34.929Z,99.90
2018-07-06T07:22:38.874Z,99.90
2018-07-06T07:24:48.816Z,99.90
2018-07-06T07:26:52.832Z,99.90
2018-07-06T07:28:56.638Z,99.90
2018-07-06T07:31:00.650Z,99.90
2018-07-06T07:33:14.882Z,99.90
2018-07-06T07:35:18.918Z,99.90
2018-07-06T07:37:22.781Z,99.90
2018-07-06T07:39:26.726Z,99.90
2018-07-06T07:41:30.633Z,99.90
2018-07-06T07:43:34.660Z,99.90
2018-07-06T07:45:38.481Z,99.90
2018-07-06T07:47:42.545Z,99.90
2018-07-06T07:49:46.383Z,99.90
2018-07-06T07:52:02.772Z,99.90
2018-07-06T07:54:17.880Z,99.90
2018-07-06T07:56:21.852Z,99.90
2018-07-06T07:58:25.796Z,99.90
2018-07-06T08:00:29.994Z,99.90
2018-07-06T08:02:33.833Z,99.90
2018-07-06T08:04:37.761Z,99.90
2018-07-06T08:06:41.653Z,99.90
2018-07-06T08:08:45.595Z,99.90
2018-07-06T08:10:49.427Z,99.90
2018-07-06T08:12:53.340Z,99.90
2018-07-06T08:14:57.270Z,99.90
2018-07-06T08:17:01.191Z,99.90
2018-07-06T08:19:05.008Z,99.90
2018-07-06T08:21:08.909Z,99.90
2018-07-06T08:23:12.699Z,99.90
2018-07-06T08:25:16.712Z,99.90
2018-07-06T08:27:20.428Z,99.90
2018-07-06T08:29:24.330Z,99.90
2018-07-06T08:31:28.173Z,99.90
2018-07-06T08:33:35.979Z,99.90
2018-07-06T08:35:50.933Z,99.90
2018-07-06T08:37:59.986Z,99.90
2018-07-06T08:40:03.953Z,99.90
2018-07-06T08:42:07.828Z,99.90
2018-07-06T08:44:12.116Z,99.90
2018-07-06T08:46:15.910Z,99.90
2018-07-06T08:48:20.026Z,99.90
2018-07-06T08:50:23.883Z,99.90
2018-07-06T08:52:27.936Z,99.90
2018-07-06T08:54:31.716Z,99.90
2018-07-06T08:56:35.599Z,99.90
2018-07-06T08:58:39.415Z,99.90
2018-07-06T09:00:43.573Z,99.90
2018-07-06T09:02:47.468Z,99.90
2018-07-06T09:04:52.210Z,99.90
2018-07-06T09:06:56.178Z,99.90
2018-07-06T09:09:00.053Z,99.90
2018-07-06T09:11:03.947Z,99.90
2018-07-06T09:13:09.270Z,99.90
2018-07-06T09:15:13.217Z,99.90
2018-07-06T09:17:17.982Z,99.90
2018-07-06T09:19:22.403Z,99.90
2018-07-06T09:21:26.496Z,99.90
2018-07-06T09:23:30.380Z,99.90
2018-07-06T09:25:34.208Z,99.90
2018-07-06T09:27:38.178Z,99.90
2018-07-06T09:29:50.080Z,99.90
2018-07-06T09:31:54.106Z,99.90
2018-07-06T09:36:01.336Z,99.90
2018-07-06T09:38:05.148Z,99.90
2018-07-06T09:40:09.674Z,99.90
2018-07-06T09:42:13.727Z,99.90
2018-07-06T09:44:17.606Z,99.90
2018-07-06T09:46:21.495Z,99.90
2018-07-06T09:48:25.335Z,99.90
2018-07-06T09:50:29.081Z,99.90
2018-07-06T09:52:32.911Z,99.90
2018-07-06T09:54:36.637Z,99.90
2018-07-06T09:56:40.497Z,99.90
2018-07-06T09:58:44.256Z,99.90
2018-07-06T10:00:55.609Z,99.90
2018-07-06T10:02:59.600Z,99.90
2018-07-06T10:05:03.634Z,99.90
2018-07-06T10:07:08.374Z,99.90
2018-07-06T10:09:12.471Z,99.90
2018-07-06T10:11:16.348Z,99.90
2018-07-06T10:13:20.449Z,99.90
2018-07-06T10:15:24.378Z,99.90
2018-07-06T10:17:28.236Z,99.90
2018-07-06T10:19:32.331Z,99.90
2018-07-06T10:21:36.145Z,99.90
2018-07-06T10:23:40.137Z,99.90
2018-07-06T10:25:43.959Z,99.90
2018-07-06T10:28:00.835Z,99.90
2018-07-06T10:30:27.056Z,99.90
2018-07-06T10:32:31.163Z,99.90
2018-07-06T10:34:36.306Z,99.90
2018-07-06T10:36:41.561Z,99.90
2018-07-06T10:38:45.507Z,99.90
2018-07-06T10:40:49.257Z,99.90
2018-07-06T10:42:53.235Z,99.90
2018-07-06T10:44:57.011Z,99.90
2018-07-06T10:47:01.041Z,99.90
2018-07-06T10:51:08.491Z,99.90
2018-07-06T10:53:13.851Z,99.90
2018-07-06T10:55:17.735Z,99.90
2018-07-06T10:57:21.516Z,99.90
2018-07-06T10:59:25.530Z,99.90
2018-07-06T11:01:29.364Z,99.90
2018-07-06T11:03:33.266Z,99.90
2018-07-06T11:05:37.055Z,99.90
2018-07-06T11:07:41.139Z,99.90
2018-07-06T11:09:44.883Z,99.90
2018-07-06T11:11:48.822Z,99.90
2018-07-06T11:13:52.605Z,99.90
2018-07-06T11:15:56.526Z,99.90
2018-07-06T11:18:00.311Z,99.90
2018-07-06T11:20:04.269Z,99.90
2018-07-06T11:22:08.215Z,99.90
2018-07-06T11:24:12.234Z,99.90
2018-07-06T11:26:15.983Z,99.90
2018-07-06T11:28:19.860Z,99.90
2018-07-06T11:30:23.668Z,99.90
2018-07-06T11:32:27.528Z,99.90
2018-07-06T11:34:31.328Z,99.90
2018-07-06T11:36:35.349Z,99.90
2018-07-06T11:38:39.170Z,99.90
2018-07-06T11:40:43.066Z,99.90
2018-07-06T11:42:46.845Z,99.90
2018-07-06T11:44:50.791Z,99.90
2018-07-06T11:46:54.586Z,99.90
2018-07-06T11:48:58.478Z,99.90
2018-07-06T11:51:02.359Z,99.90
2018-07-06T11:53:07.369Z,99.90
2018-07-06T11:55:11.423Z,99.90
2018-07-06T11:57:15.170Z,99.90
2018-07-06T11:59:19.092Z,99.90
2018-07-06T12:01:22.871Z,99.90
2018-07-06T12:03:26.740Z,99.90
2018-07-06T12:05:30.563Z,99.90
2018-07-06T12:07:34.446Z,99.90
2018-07-06T12:09:38.219Z,99.90
2018-07-06T12:11:42.357Z,99.90
2018-07-06T12:13:46.236Z,99.90
2018-07-06T12:15:51.203Z,99.90
2018-07-06T12:17:55.010Z,99.90
2018-07-06T12:19:58.869Z,99.90
2018-07-06T12:22:02.714Z,99.90
2018-07-06T12:24:06.787Z,99.90
2018-07-06T12:26:10.540Z,99.90
2018-07-06T12:28:14.422Z,99.90
2018-07-06T12:30:18.230Z,99.90
2018-07-06T12:32:22.178Z,99.90
2018-07-06T12:34:25.962Z,99.90
2018-07-06T12:36:29.888Z,99.90
2018-07-06T12:38:33.652Z,99.90
2018-07-06T12:40:37.577Z,99.90
2018-07-06T12:42:41.532Z,99.90
2018-07-06T12:44:45.392Z,99.90
2018-07-06T12:46:49.138Z,99.80
2018-07-06T12:48:53.139Z,99.90
2018-07-06T12:50:56.942Z,99.90
2018-07-06T12:53:00.808Z,99.90
2018-07-06T12:55:04.884Z,99.90
2018-07-06T12:57:08.738Z,99.90
2018-07-06T12:59:12.488Z,99.90
2018-07-06T13:01:16.544Z,99.90
2018-07-06T13:03:20.335Z,99.90
2018-07-06T13:07:27.583Z,99.90
2018-07-06T13:09:31.437Z,99.90
2018-07-06T13:11:45.818Z,99.90
2018-07-06T13:13:49.866Z,99.90
2018-07-06T13:15:53.612Z,99.90
2018-07-06T13:17:57.536Z,99.90
2018-07-06T13:20:01.323Z,99.90
2018-07-06T13:22:05.214Z,99.70
2018-07-06T13:24:08.965Z,99.90
2018-07-06T13:26:12.817Z,99.90
2018-07-06T13:28:16.600Z,99.90
2018-07-06T13:32:24.006Z,99.90
2018-07-06T13:34:28.009Z,99.90
2018-07-06T13:36:31.769Z,99.90
2018-07-06T13:38:35.710Z,99.90
2018-07-06T13:40:39.530Z,99.90
2018-07-06T13:42:43.481Z,99.70
2018-07-06T13:44:47.260Z,99.90
2018-07-06T13:46:51.177Z,99.90
2018-07-06T13:48:54.974Z,99.90
2018-07-06T13:50:58.849Z,99.90
2018-07-06T13:53:02.669Z,99.90
2018-07-06T13:55:06.718Z,99.90
2018-07-06T13:57:10.463Z,99.90
2018-07-06T13:59:14.497Z,99.90
2018-07-06T14:01:18.323Z,99.90
2018-07-06T14:03:22.203Z,99.90
2018-07-06T14:05:25.935Z,99.90
2018-07-06T14:07:29.833Z,99.90
2018-07-06T14:09:33.630Z,99.90
2018-07-06T14:11:37.484Z,99.90
2018-07-06T14:13:41.322Z,99.90
2018-07-06T14:15:45.217Z,99.90
2018-07-06T14:17:48.966Z,99.90
2018-07-06T14:19:52.859Z,99.90
2018-07-06T14:21:56.658Z,99.90
2018-07-06T14:24:00.578Z,99.90
2018-07-06T14:26:04.417Z,99.90
2018-07-06T14:28:09.285Z,99.90
2018-07-06T14:30:13.050Z,99.90
2018-07-06T14:32:17.011Z,99.90
2018-07-06T14:34:20.763Z,99.90
2018-07-06T14:36:24.668Z,99.90
2018-07-06T14:38:28.485Z,99.90
2018-07-06T14:40:32.376Z,99.90
2018-07-06T14:42:36.137Z,99.90
2018-07-06T14:44:40.052Z,99.90
2018-07-06T14:46:43.841Z,99.90
2018-07-06T14:48:47.831Z,99.90
2018-07-06T14:50:51.602Z,99.90
2018-07-06T14:52:55.480Z,99.90
2018-07-06T14:54:59.260Z,99.90
2018-07-06T14:57:03.131Z,99.70
2018-07-06T14:59:07.138Z,98.50
2018-07-06T15:01:11.087Z,99.20
2018-07-06T15:03:15.043Z,99.60
2018-07-06T15:05:18.957Z,99.90
2018-07-06T15:07:22.772Z,99.90
2018-07-06T15:09:26.658Z,99.90
2018-07-06T15:11:30.494Z,99.90
2018-07-06T15:13:34.413Z,99.90
2018-07-06T15:15:38.289Z,99.90
2018-07-06T15:17:42.216Z,99.90
2018-07-06T15:19:46.018Z,99.90
2018-07-06T15:21:49.872Z,98.90
2018-07-06T15:23:53.627Z,98.60
2018-07-06T15:25:57.527Z,98.50
2018-07-06T15:28:01.314Z,99.10
2018-07-06T15:30:05.210Z,99.50
2018-07-06T15:32:09.058Z,99.00
2018-07-06T15:34:12.904Z,97.30
2018-07-06T15:36:16.766Z,97.60
2018-07-06T15:38:20.717Z,98.40
2018-07-06T15:40:24.522Z,97.20
2018-07-06T15:44:31.790Z,98.60
2018-07-06T15:46:35.701Z,99.90
2018-07-06T15:48:39.495Z,99.90
2018-07-06T15:50:43.445Z,99.70
2018-07-06T15:52:47.279Z,98.30
2018-07-06T15:54:51.184Z,99.20
2018-07-06T15:56:55.096Z,99.30
2018-07-06T15:58:58.954Z,99.90
2018-07-06T16:01:02.934Z,98.10
2018-07-06T16:03:07.058Z,98.30
2018-07-06T16:05:10.856Z,98.30
2018-07-06T16:07:14.714Z,98.60
2018-07-06T16:09:18.507Z,98.50
2018-07-06T16:11:22.378Z,97.70
2018-07-06T16:13:26.227Z,99.60
2018-07-06T16:15:30.157Z,98.70
2018-07-06T16:17:34.053Z,98.40
2018-07-06T16:19:38.014Z,97.70
2018-07-06T16:21:41.857Z,98.20
2018-07-06T16:23:45.827Z,99.10
2018-07-06T16:25:49.684Z,97.80
2018-07-06T16:27:53.809Z,97.90
2018-07-06T16:29:57.714Z,97.60
2018-07-06T16:32:01.646Z,97.30
2018-07-06T16:34:05.462Z,96.70
2018-07-06T16:36:09.406Z,97.00
2018-07-06T16:38:13.342Z,98.00
2018-07-06T16:40:17.248Z,96.70
2018-07-06T16:42:21.064Z,97.20
2018-07-06T16:44:25.071Z,97.20
2018-07-06T16:46:28.904Z,97.40
2018-07-06T16:48:32.912Z,96.60
2018-07-06T16:50:36.683Z,98.00
2018-07-06T16:52:40.599Z,98.40
2018-07-06T16:54:44.398Z,98.30
2018-07-06T16:56:48.303Z,98.00
2018-07-06T16:58:52.092Z,97.90
2018-07-06T17:00:56.036Z,99.10
2018-07-06T17:02:59.832Z,97.10
2018-07-06T17:05:03.748Z,97.20
2018-07-06T17:07:07.558Z,97.00
2018-07-06T17:09:11.406Z,98.20
2018-07-06T17:11:15.365Z,97.10
2018-07-06T17:13:19.265Z,98.00
2018-07-06T17:15:23.070Z,98.10
2018-07-06T17:17:26.992Z,98.30
2018-07-06T17:19:30.846Z,97.20
2018-07-06T17:21:34.849Z,98.20
2018-07-06T17:23:38.820Z,98.50
2018-07-06T17:25:42.850Z,97.70
2018-07-06T17:27:46.711Z,97.60
2018-07-06T17:29:50.637Z,98.30
2018-07-06T17:31:54.494Z,97.70
2018-07-06T17:33:58.548Z,97.70
2018-07-06T17:36:02.454Z,97.50
2018-07-06T17:38:06.538Z,98.80
2018-07-06T17:40:11.629Z,98.30
2018-07-06T17:42:15.667Z,97.40
2018-07-06T17:44:19.539Z,97.60
2018-07-06T17:46:23.718Z,97.70
2018-07-06T17:48:27.697Z,97.10
2018-07-06T17:50:31.805Z,97.20
2018-07-06T17:52:35.749Z,97.20
2018-07-06T17:54:40.216Z,96.90
2018-07-06T17:56:44.580Z,97.70
2018-07-06T17:58:48.653Z,97.60
2018-07-06T18:00:52.613Z,98.40
2018-07-06T18:02:56.592Z,97.40
2018-07-06T18:05:00.871Z,97.50
2018-07-06T18:07:04.854Z,97.60
2018-07-06T18:09:08.727Z,96.70
2018-07-06T18:11:12.731Z,96.90
2018-07-06T18:13:16.627Z,96.80
2018-07-06T18:15:20.954Z,96.40
2018-07-06T18:17:24.901Z,96.30
2018-07-06T18:19:28.933Z,96.70
2018-07-06T18:21:32.822Z,96.90
2018-07-06T18:23:36.861Z,97.10
2018-07-06T18:25:40.797Z,96.10
2018-07-06T18:27:44.764Z,96.20
2018-07-06T18:29:48.740Z,96.00
2018-07-06T18:31:52.709Z,96.50
2018-07-06T18:33:56.475Z,97.30
2018-07-06T18:36:00.386Z,96.70
2018-07-06T18:38:04.262Z,98.30
2018-07-06T18:40:08.323Z,97.00
2018-07-06T18:42:12.217Z,97.80
2018-07-06T18:44:16.200Z,96.80
2018-07-06T18:46:20.081Z,96.40
2018-07-06T18:48:24.110Z,97.10
2018-07-06T18:50:28.117Z,97.00
2018-07-06T18:52:32.135Z,97.40
2018-07-06T18:54:36.059Z,97.10
2018-07-06T18:56:49.411Z,97.20
2018-07-06T18:58:53.387Z,96.90
2018-07-06T19:00:57.204Z,98.10
2018-07-06T19:03:01.230Z,97.70
2018-07-06T19:05:05.348Z,97.10
2018-07-06T19:07:09.484Z,97.00
2018-07-06T19:09:13.436Z,97.60
2018-07-06T19:11:17.409Z,97.80
2018-07-06T19:13:21.303Z,98.40
2018-07-06T19:15:25.265Z,98.70
2018-07-06T19:17:29.096Z,98.60
2018-07-06T19:19:33.033Z,98.00
2018-07-06T19:21:37.415Z,98.20
2018-07-06T19:23:41.548Z,99.20
2018-07-06T19:25:45.439Z,99.20
2018-07-06T19:27:49.561Z,98.40
2018-07-06T19:29:53.454Z,98.60
2018-07-06T19:31:57.566Z,98.50
2018-07-06T19:34:01.406Z,99.00
2018-07-06T19:36:05.519Z,99.20
2018-07-06T19:38:09.401Z,99.20
2018-07-06T19:40:13.389Z,99.10
2018-07-06T19:44:24.092Z,99.90
2018-07-06T19:46:28.174Z,99.60
2018-07-06T19:48:32.025Z,99.90
2018-07-06T19:50:36.015Z,99.40
2018-07-06T19:52:40.985Z,99.90
2018-07-06T19:54:44.950Z,99.90
2018-07-06T19:56:48.822Z,99.90
2018-07-06T19:58:53.834Z,99.90
2018-07-06T20:01:03.717Z,99.90
2018-07-06T20:03:17.321Z,99.90
2018-07-06T20:05:21.322Z,99.60
2018-07-06T20:09:28.947Z,99.80
2018-07-06T20:11:32.971Z,99.90
2018-07-06T20:13:38.841Z,99.90
2018-07-06T20:15:42.766Z,99.90
2018-07-06T20:17:47.024Z,99.90
2018-07-06T20:19:51.240Z,99.90
2018-07-06T20:21:55.214Z,99.90
2018-07-06T20:23:59.281Z,99.40
2018-07-06T20:26:03.559Z,99.90
2018-07-06T20:28:08.677Z,99.90
2018-07-06T20:30:12.929Z,99.90
2018-07-06T20:32:37.230Z,99.90
2018-07-06T20:34:41.359Z,99.90
2018-07-06T20:36:45.262Z,99.70
2018-07-06T20:38:49.661Z,99.90
2018-07-06T20:40:53.656Z,99.90
2018-07-06T20:42:57.816Z,99.90
2018-07-06T20:45:01.876Z,99.90
2018-07-06T20:47:06.258Z,99.90
2018-07-06T20:49:10.332Z,99.90
2018-07-06T20:51:14.327Z,99.90
2018-07-06T20:53:18.259Z,99.90
2018-07-06T20:55:41.882Z,99.90
2018-07-06T20:57:46.131Z,99.90
2018-07-06T20:59:49.913Z,99.90
2018-07-06T21:01:53.914Z,99.90
2018-07-06T21:03:57.745Z,99.90
2018-07-06T21:06:01.629Z,99.90
2018-07-06T21:08:05.564Z,99.90
2018-07-06T21:10:09.469Z,99.90
2018-07-06T21:12:13.261Z,99.90
2018-07-06T21:14:17.171Z,99.90
2018-07-06T21:16:21.037Z,99.90
2018-07-06T21:18:25.017Z,99.90
2018-07-06T21:20:28.820Z,99.90
2018-07-06T21:22:32.795Z,99.90
2018-07-06T21:24:36.718Z,99.90
2018-07-06T21:26:40.724Z,99.90
2018-07-06T21:28:44.574Z,99.90
2018-07-06T21:30:48.603Z,99.90
2018-07-06T21:32:52.402Z,99.90
2018-07-06T21:34:56.357Z,99.90
2018-07-06T21:37:00.138Z,99.90
2018-07-06T21:39:04.837Z,99.90
2018-07-06T21:41:08.770Z,99.90
2018-07-06T21:43:12.714Z,99.90
2018-07-06T21:45:16.571Z,99.90
2018-07-06T21:47:20.466Z,99.90
2018-07-06T21:49:24.278Z,99.90
2018-07-06T21:51:28.354Z,99.90
2018-07-06T21:53:32.189Z,99.90
2018-07-06T21:55:36.154Z,99.90
2018-07-06T21:57:39.979Z,99.90
2018-07-06T21:59:43.889Z,99.90
2018-07-06T22:01:47.915Z,99.90
2018-07-06T22:03:51.873Z,99.90
2018-07-06T22:05:55.707Z,99.90
2018-07-06T22:07:59.753Z,99.90
2018-07-06T22:10:03.670Z,99.90
2018-07-06T22:12:07.577Z,99.90
2018-07-06T22:14:11.366Z,99.90
2018-07-06T22:16:15.329Z,99.90
2018-07-06T22:18:20.044Z,99.90
2018-07-06T22:20:24.071Z,99.90
2018-07-06T22:22:28.041Z,99.90
2018-07-06T22:24:32.031Z,99.90
2018-07-06T22:26:35.881Z,99.90
2018-07-06T22:28:39.808Z,99.90
2018-07-06T22:30:43.737Z,99.90
2018-07-06T22:32:47.705Z,99.90
2018-07-06T22:34:51.488Z,99.90
2018-07-06T22:36:55.397Z,99.90
2018-07-06T22:38:59.227Z,99.90
2018-07-06T22:41:03.156Z,99.90
2018-07-06T22:45:10.524Z,99.90
2018-07-06T22:47:14.336Z,99.90
2018-07-06T22:49:18.326Z,99.90
2018-07-06T22:51:22.275Z,99.90
2018-07-06T22:53:26.216Z,99.90
2018-07-06T22:55:30.023Z,99.90
2018-07-06T22:57:34.106Z,99.90
2018-07-06T22:59:37.944Z,99.90
2018-07-06T23:01:41.893Z,99.90
2018-07-06T23:03:45.766Z,99.90
2018-07-06T23:05:49.776Z,99.90
2018-07-06T23:07:53.671Z,99.90
2018-07-06T23:09:57.591Z,99.90
2018-07-06T23:12:01.441Z,99.90
2018-07-06T23:14:05.343Z,99.90
2018-07-06T23:16:09.195Z,99.90
2018-07-06T23:18:13.198Z,99.90
2018-07-06T23:20:16.992Z,99.90
2018-07-06T23:22:30.606Z,99.90
2018-07-06T23:24:34.513Z,99.90
2018-07-06T23:26:38.319Z,99.90
2018-07-06T23:28:42.325Z,99.90
2018-07-06T23:30:46.296Z,99.90
2018-07-06T23:32:50.202Z,99.90
2018-07-06T23:34:54.059Z,99.90
2018-07-06T23:36:58.024Z,99.90
2018-07-06T23:39:01.835Z,99.90
2018-07-06T23:41:05.765Z,99.90
2018-07-06T23:43:09.602Z,99.90
2018-07-06T23:45:13.519Z,99.90
2018-07-06T23:47:17.413Z,99.90
2018-07-06T23:49:21.382Z,99.90
2018-07-06T23:51:25.232Z,99.90
2018-07-06T23:53:29.157Z,99.90
2018-07-06T23:55:33.010Z,99.90
2018-07-06T23:57:36.949Z,99.90
2018-07-06T23:59:40.734Z,99.90
